sensor_id;sensor_type;location;lat;lon;timestamp;pressure;altitude;pressure_sealevel;temperature;humidity
30856;BME280;17570;0.000;0.000;2022-12-31T00:01:27;97970.08;;;12.68;40.71
30856;BME280;17570;0.000;0.000;2022-12-31T00:03:55;97974.88;;;12.74;40.71
30856;BME280;17570;0.000;0.000;2022-12-31T00:06:29;97977.48;;;12.74;40.70
30856;BME280;17570;0.000;0.000;2022-12-31T00:08:58;97978.42;;;12.73;40.93
30856;BME280;17570;0.000;0.000;2022-12-31T00:11:26;97984.55;;;12.72;40.99
30856;BME280;17570;0.000;0.000;2022-12-31T00:13:55;97985.30;;;12.74;40.88
30856;BME280;17570;0.000;0.000;2022-12-31T00:16:29;97977.56;;;12.72;40.95
30856;BME280;17570;0.000;0.000;2022-12-31T00:18:52;97983.39;;;12.76;41.04
30856;BME280;17570;0.000;0.000;2022-12-31T00:21:20;97988.27;;;12.81;41.25
30856;BME280;17570;0.000;0.000;2022-12-31T00:23:48;97992.66;;;12.80;41.27
30856;BME280;17570;0.000;0.000;2022-12-31T00:26:16;97985.30;;;12.74;41.40
30856;BME280;17570;0.000;0.000;2022-12-31T00:28:44;97998.31;;;12.74;41.42
30856;BME280;17570;0.000;0.000;2022-12-31T00:31:19;97992.61;;;12.69;41.49
30856;BME280;17570;0.000;0.000;2022-12-31T00:33:47;97998.41;;;12.72;41.44
30856;BME280;17570;0.000;0.000;2022-12-31T00:36:15;97998.53;;;12.71;41.62
30856;BME280;17570;0.000;0.000;2022-12-31T00:38:44;98005.19;;;12.75;41.54
30856;BME280;17570;0.000;0.000;2022-12-31T00:41:12;98006.63;;;12.79;41.56
30856;BME280;17570;0.000;0.000;2022-12-31T00:43:40;98012.55;;;12.81;41.49
30856;BME280;17570;0.000;0.000;2022-12-31T00:46:08;98009.00;;;12.82;41.53
30856;BME280;17570;0.000;0.000;2022-12-31T00:48:35;98011.52;;;12.84;41.63
30856;BME280;17570;0.000;0.000;2022-12-31T00:51:03;98005.56;;;12.82;41.72
30856;BME280;17570;0.000;0.000;2022-12-31T00:53:31;98004.65;;;12.83;41.64
30856;BME280;17570;0.000;0.000;2022-12-31T00:56:00;98004.73;;;12.81;41.64
30856;BME280;17570;0.000;0.000;2022-12-31T00:58:27;98004.53;;;12.84;41.68
30856;BME280;17570;0.000;0.000;2022-12-31T01:00:55;98008.79;;;12.85;41.78
30856;BME280;17570;0.000;0.000;2022-12-31T01:03:23;98009.73;;;12.84;41.77
30856;BME280;17570;0.000;0.000;2022-12-31T01:05:50;98013.29;;;12.83;41.86
30856;BME280;17570;0.000;0.000;2022-12-31T01:08:18;98010.89;;;12.80;41.72
30856;BME280;17570;0.000;0.000;2022-12-31T01:10:48;98013.29;;;12.83;41.85
30856;BME280;17570;0.000;0.000;2022-12-31T01:13:34;98005.69;;;12.80;41.82
30856;BME280;17570;0.000;0.000;2022-12-31T01:16:08;98012.29;;;12.73;42.05
30856;BME280;17570;0.000;0.000;2022-12-31T01:18:35;98002.87;;;12.83;41.94
30856;BME280;17570;0.000;0.000;2022-12-31T01:21:04;98005.56;;;12.82;41.91
30856;BME280;17570;0.000;0.000;2022-12-31T01:23:32;98000.59;;;12.79;42.01
30856;BME280;17570;0.000;0.000;2022-12-31T01:26:00;98000.80;;;12.75;41.98
30856;BME280;17570;0.000;0.000;2022-12-31T01:28:28;98003.29;;;12.77;41.89
30856;BME280;17570;0.000;0.000;2022-12-31T01:30:56;97998.31;;;12.74;41.84
30856;BME280;17570;0.000;0.000;2022-12-31T01:33:23;97997.81;;;12.69;41.78
30856;BME280;17570;0.000;0.000;2022-12-31T01:35:51;98000.42;;;12.69;41.93
30856;BME280;17570;0.000;0.000;2022-12-31T01:38:18;97995.54;;;12.64;41.85
30856;BME280;17570;0.000;0.000;2022-12-31T01:40:46;97995.42;;;12.66;41.63
30856;BME280;17570;0.000;0.000;2022-12-31T01:43:14;97998.14;;;12.64;41.72
30856;BME280;17570;0.000;0.000;2022-12-31T01:45:46;97999.68;;;12.67;41.60
30856;BME280;17570;0.000;0.000;2022-12-31T01:48:15;98008.56;;;12.64;41.54
30856;BME280;17570;0.000;0.000;2022-12-31T01:50:43;98004.59;;;12.59;41.69
30856;BME280;17570;0.000;0.000;2022-12-31T01:53:12;98008.98;;;12.58;41.75
30856;BME280;17570;0.000;0.000;2022-12-31T01:55:45;98008.15;;;12.58;41.71
30856;BME280;17570;0.000;0.000;2022-12-31T01:58:26;98010.66;;;12.59;41.59
30856;BME280;17570;0.000;0.000;2022-12-31T02:00:53;98006.70;;;12.54;41.80
30856;BME280;17570;0.000;0.000;2022-12-31T02:03:23;98016.52;;;12.50;41.99
30856;BME280;17570;0.000;0.000;2022-12-31T02:06:28;98011.58;;;12.58;41.95
30856;BME280;17570;0.000;0.000;2022-12-31T02:08:26;98008.98;;;12.58;41.91
30856;BME280;17570;0.000;0.000;2022-12-31T02:10:54;98016.41;;;12.51;42.19
30856;BME280;17570;0.000;0.000;2022-12-31T02:13:21;98015.58;;;12.51;42.05
30856;BME280;17570;0.000;0.000;2022-12-31T02:16:01;98006.70;;;12.54;41.93
30856;BME280;17570;0.000;0.000;2022-12-31T02:18:48;98012.64;;;12.56;41.99
30856;BME280;17570;0.000;0.000;2022-12-31T02:21:32;98003.27;;;12.53;42.13
30856;BME280;17570;0.000;0.000;2022-12-31T02:26:53;98007.91;;;12.37;42.44
30856;BME280;17570;0.000;0.000;2022-12-31T02:32:12;98024.47;;;12.36;42.41
30856;BME280;17570;0.000;0.000;2022-12-31T02:34:42;98016.42;;;12.39;42.53
30856;BME280;17570;0.000;0.000;2022-12-31T02:37:09;98025.06;;;12.39;42.35
30856;BME280;17570;0.000;0.000;2022-12-31T02:39:38;98025.06;;;12.39;42.16
30856;BME280;17570;0.000;0.000;2022-12-31T02:42:05;98022.05;;;12.45;41.95
30856;BME280;17570;0.000;0.000;2022-12-31T02:44:33;98025.25;;;12.49;41.85
30856;BME280;17570;0.000;0.000;2022-12-31T02:52:08;98027.28;;;12.33;41.85
30856;BME280;17570;0.000;0.000;2022-12-31T02:57:25;98034.65;;;12.39;41.69
30856;BME280;17570;0.000;0.000;2022-12-31T02:59:57;98038.44;;;12.22;42.02
30856;BME280;17570;0.000;0.000;2022-12-31T03:02:41;98050.59;;;12.21;41.96
30856;BME280;17570;0.000;0.000;2022-12-31T03:05:09;98041.16;;;12.08;42.13
30856;BME280;17570;0.000;0.000;2022-12-31T03:07:38;98040.73;;;12.14;41.77
30856;BME280;17570;0.000;0.000;2022-12-31T03:10:06;98044.16;;;12.14;41.76
30856;BME280;17570;0.000;0.000;2022-12-31T03:12:34;98052.80;;;12.15;41.57
30856;BME280;17570;0.000;0.000;2022-12-31T03:15:18;98042.70;;;12.10;41.69
30856;BME280;17570;0.000;0.000;2022-12-31T03:17:53;98044.98;;;12.02;41.72
30856;BME280;17570;0.000;0.000;2022-12-31T03:20:22;98042.30;;;12.04;41.63
30856;BME280;17570;0.000;0.000;2022-12-31T03:23:08;98037.92;;;12.04;41.57
30856;BME280;17570;0.000;0.000;2022-12-31T03:25:36;98047.61;;;11.89;41.88
30856;BME280;17570;0.000;0.000;2022-12-31T03:28:08;98045.72;;;11.91;41.78
30856;BME280;17570;0.000;0.000;2022-12-31T03:30:37;98045.00;;;11.89;41.71
30856;BME280;17570;0.000;0.000;2022-12-31T03:33:05;98036.77;;;11.83;41.71
30856;BME280;17570;0.000;0.000;2022-12-31T03:35:34;98043.55;;;11.85;41.55
30856;BME280;17570;0.000;0.000;2022-12-31T03:38:02;98049.77;;;11.83;41.45
30856;BME280;17570;0.000;0.000;2022-12-31T03:40:30;98046.42;;;11.81;41.60
30856;BME280;17570;0.000;0.000;2022-12-31T03:42:57;98044.63;;;11.68;41.71
30856;BME280;17570;0.000;0.000;2022-12-31T03:45:25;98047.69;;;11.35;42.29
30856;BME280;17570;0.000;0.000;2022-12-31T03:47:52;98046.29;;;11.57;42.06
30856;BME280;17570;0.000;0.000;2022-12-31T03:50:20;98058.80;;;11.77;41.44
30856;BME280;17570;0.000;0.000;2022-12-31T03:52:47;98060.06;;;11.84;41.47
30856;BME280;17570;0.000;0.000;2022-12-31T03:55:15;98056.63;;;11.84;41.35
30856;BME280;17570;0.000;0.000;2022-12-31T03:57:42;98056.00;;;11.80;41.41
30856;BME280;17570;0.000;0.000;2022-12-31T04:00:11;98063.23;;;11.22;42.66
30856;BME280;17570;0.000;0.000;2022-12-31T04:02:39;98059.06;;;11.60;42.22
30856;BME280;17570;0.000;0.000;2022-12-31T04:05:08;98055.72;;;11.85;41.72
30856;BME280;17570;0.000;0.000;2022-12-31T04:07:36;98065.18;;;11.86;41.50
30856;BME280;17570;0.000;0.000;2022-12-31T04:10:04;98066.95;;;11.85;41.50
30856;BME280;17570;0.000;0.000;2022-12-31T04:12:31;98062.38;;;11.49;42.08
30856;BME280;17570;0.000;0.000;2022-12-31T04:14:59;98061.58;;;11.21;42.86
30856;BME280;17570;0.000;0.000;2022-12-31T04:17:27;98063.74;;;11.55;42.09
30856;BME280;17570;0.000;0.000;2022-12-31T04:19:54;98063.58;;;11.70;41.60
30856;BME280;17570;0.000;0.000;2022-12-31T04:22:22;98066.23;;;11.56;41.79
30856;BME280;17570;0.000;0.000;2022-12-31T04:24:49;98069.91;;;11.27;42.59
30856;BME280;17570;0.000;0.000;2022-12-31T04:27:17;98063.94;;;11.52;42.25
30856;BME280;17570;0.000;0.000;2022-12-31T04:29:44;98071.98;;;11.74;41.70
30856;BME280;17570;0.000;0.000;2022-12-31T04:32:12;98070.44;;;11.71;41.59
30856;BME280;17570;0.000;0.000;2022-12-31T04:34:39;98080.83;;;11.32;42.47
30856;BME280;17570;0.000;0.000;2022-12-31T04:37:07;98081.13;;;11.27;42.78
30856;BME280;17570;0.000;0.000;2022-12-31T04:39:34;98079.38;;;11.67;42.09
30856;BME280;17570;0.000;0.000;2022-12-31T04:42:02;98082.64;;;11.84;41.73
30856;BME280;17570;0.000;0.000;2022-12-31T04:44:29;98081.73;;;11.85;41.57
30856;BME280;17570;0.000;0.000;2022-12-31T04:46:58;98085.19;;;11.58;42.16
30856;BME280;17570;0.000;0.000;2022-12-31T04:49:26;98082.66;;;11.44;42.78
30856;BME280;17570;0.000;0.000;2022-12-31T04:51:53;98082.69;;;11.57;42.41
30856;BME280;17570;0.000;0.000;2022-12-31T04:54:21;98087.77;;;11.85;42.03
30856;BME280;17570;0.000;0.000;2022-12-31T04:56:48;98096.09;;;11.90;41.90
30856;BME280;17570;0.000;0.000;2022-12-31T04:59:16;98090.66;;;11.93;41.86
30856;BME280;17570;0.000;0.000;2022-12-31T05:01:43;98094.21;;;11.92;41.98
30856;BME280;17570;0.000;0.000;2022-12-31T05:04:10;98094.21;;;11.92;42.09
30856;BME280;17570;0.000;0.000;2022-12-31T05:06:38;98097.56;;;11.94;42.09
30856;BME280;17570;0.000;0.000;2022-12-31T05:09:05;98099.41;;;11.92;42.22
30856;BME280;17570;0.000;0.000;2022-12-31T05:11:33;98103.67;;;11.93;42.29
30856;BME280;17570;0.000;0.000;2022-12-31T05:14:02;98105.97;;;11.85;42.49
30856;BME280;17570;0.000;0.000;2022-12-31T05:16:29;98114.56;;;11.46;43.20
30856;BME280;17570;0.000;0.000;2022-12-31T05:18:57;98113.83;;;11.71;42.86
30856;BME280;17570;0.000;0.000;2022-12-31T05:21:24;98125.09;;;11.84;42.42
30856;BME280;17570;0.000;0.000;2022-12-31T05:23:52;98121.17;;;11.91;42.26
30856;BME280;17570;0.000;0.000;2022-12-31T05:26:19;98126.90;;;11.96;42.14
30856;BME280;17570;0.000;0.000;2022-12-31T05:28:47;98124.48;;;11.93;42.12
30856;BME280;17570;0.000;0.000;2022-12-31T05:31:14;98133.34;;;11.64;42.58
30856;BME280;17570;0.000;0.000;2022-12-31T05:33:42;98134.88;;;11.54;42.94
30856;BME280;17570;0.000;0.000;2022-12-31T05:36:09;98135.61;;;11.83;42.03
30856;BME280;17570;0.000;0.000;2022-12-31T05:38:36;98132.70;;;11.87;41.75
30856;BME280;17570;0.000;0.000;2022-12-31T05:41:05;98135.83;;;11.53;42.27
30856;BME280;17570;0.000;0.000;2022-12-31T05:43:33;98139.06;;;11.29;42.77
30856;BME280;17570;0.000;0.000;2022-12-31T05:46:01;98144.80;;;11.34;42.56
30856;BME280;17570;0.000;0.000;2022-12-31T05:48:29;98141.69;;;11.42;42.47
30856;BME280;17570;0.000;0.000;2022-12-31T05:50:57;98137.59;;;11.52;42.17
30856;BME280;17570;0.000;0.000;2022-12-31T05:53:24;98138.25;;;11.68;41.79
30856;BME280;17570;0.000;0.000;2022-12-31T05:55:52;98140.52;;;11.87;41.45
30856;BME280;17570;0.000;0.000;2022-12-31T05:58:19;98148.31;;;11.87;41.51
30856;BME280;17570;0.000;0.000;2022-12-31T06:00:47;98154.66;;;11.83;41.58
30856;BME280;17570;0.000;0.000;2022-12-31T06:03:14;98153.07;;;11.81;41.66
30856;BME280;17570;0.000;0.000;2022-12-31T06:05:42;98158.09;;;11.57;41.98
30856;BME280;17570;0.000;0.000;2022-12-31T06:08:09;98170.21;;;11.43;42.29
30856;BME280;17570;0.000;0.000;2022-12-31T06:10:38;98161.28;;;11.47;42.33
30856;BME280;17570;0.000;0.000;2022-12-31T06:13:06;98168.22;;;11.47;42.25
30856;BME280;17570;0.000;0.000;2022-12-31T06:15:37;98166.56;;;11.46;42.34
30856;BME280;17570;0.000;0.000;2022-12-31T06:18:06;98179.91;;;11.81;41.83
30856;BME280;17570;0.000;0.000;2022-12-31T06:20:36;98180.36;;;11.88;41.37
30856;BME280;17570;0.000;0.000;2022-12-31T06:23:04;98178.59;;;11.88;41.45
30856;BME280;17570;0.000;0.000;2022-12-31T06:25:33;98176.82;;;11.89;41.60
30856;BME280;17570;0.000;0.000;2022-12-31T06:28:03;98176.75;;;11.90;41.57
30856;BME280;17570;0.000;0.000;2022-12-31T06:30:31;98188.28;;;11.86;41.50
30856;BME280;17570;0.000;0.000;2022-12-31T06:32:58;98193.02;;;11.53;42.00
30856;BME280;17570;0.000;0.000;2022-12-31T06:35:34;98193.53;;;11.31;42.46
30856;BME280;17570;0.000;0.000;2022-12-31T06:38:03;98197.10;;;11.57;42.10
30856;BME280;17570;0.000;0.000;2022-12-31T06:40:31;98197.66;;;11.74;41.53
30856;BME280;17570;0.000;0.000;2022-12-31T06:42:58;98202.79;;;11.76;41.45
30856;BME280;17570;0.000;0.000;2022-12-31T06:45:26;98200.58;;;11.43;42.18
30856;BME280;17570;0.000;0.000;2022-12-31T06:47:53;98205.30;;;11.36;42.36
30856;BME280;17570;0.000;0.000;2022-12-31T06:50:21;98203.72;;;11.48;42.17
30856;BME280;17570;0.000;0.000;2022-12-31T06:52:48;98210.29;;;11.54;42.15
30856;BME280;17570;0.000;0.000;2022-12-31T06:55:16;98207.05;;;11.77;41.93
30856;BME280;17570;0.000;0.000;2022-12-31T06:57:43;98219.31;;;11.89;41.62
30856;BME280;17570;0.000;0.000;2022-12-31T07:00:11;98204.42;;;11.91;41.59
30856;BME280;17570;0.000;0.000;2022-12-31T07:05:20;98211.20;;;11.94;41.73
30856;BME280;17570;0.000;0.000;2022-12-31T07:07:54;98215.36;;;11.96;41.82
30856;BME280;17570;0.000;0.000;2022-12-31T07:10:26;98217.13;;;11.96;41.95
30856;BME280;17570;0.000;0.000;2022-12-31T07:13:00;98225.13;;;11.93;41.97
30856;BME280;17570;0.000;0.000;2022-12-31T07:15:44;98221.39;;;11.97;42.07
30856;BME280;17570;0.000;0.000;2022-12-31T07:20:47;98224.11;;;11.95;42.35
30856;BME280;17570;0.000;0.000;2022-12-31T07:23:15;98231.72;;;11.98;42.61
30856;BME280;17570;0.000;0.000;2022-12-31T07:25:43;98230.19;;;12.09;42.48
30856;BME280;17570;0.000;0.000;2022-12-31T07:31:06;98239.16;;;12.17;42.55
30856;BME280;17570;0.000;0.000;2022-12-31T07:39:03;98227.53;;;12.48;45.68
30856;BME280;17570;0.000;0.000;2022-12-31T07:44:10;98230.66;;;12.54;44.88
30856;BME280;17570;0.000;0.000;2022-12-31T07:46:53;98229.33;;;12.61;44.45
30856;BME280;17570;0.000;0.000;2022-12-31T07:49:20;98231.73;;;12.64;44.42
30856;BME280;17570;0.000;0.000;2022-12-31T07:51:48;98238.17;;;12.58;44.42
30856;BME280;17570;0.000;0.000;2022-12-31T07:54:16;98226.41;;;12.65;44.39
30856;BME280;17570;0.000;0.000;2022-12-31T07:56:43;98237.88;;;12.75;44.23
30856;BME280;17570;0.000;0.000;2022-12-31T08:01:49;98240.05;;;12.94;43.93
30856;BME280;17570;0.000;0.000;2022-12-31T08:04:17;98238.08;;;12.98;43.92
30856;BME280;17570;0.000;0.000;2022-12-31T08:06:46;98235.05;;;13.04;43.93
30856;BME280;17570;0.000;0.000;2022-12-31T08:12:00;98247.23;;;13.16;43.92
30856;BME280;17570;0.000;0.000;2022-12-31T08:14:29;98245.03;;;13.10;44.22
30856;BME280;17570;0.000;0.000;2022-12-31T08:16:57;98243.48;;;13.20;44.13
30856;BME280;17570;0.000;0.000;2022-12-31T08:19:26;98245.24;;;13.33;43.86
30856;BME280;17570;0.000;0.000;2022-12-31T08:30:06;98238.55;;;13.41;44.31
30856;BME280;17570;0.000;0.000;2022-12-31T08:32:38;98240.95;;;13.44;44.37
30856;BME280;17570;0.000;0.000;2022-12-31T08:37:56;98236.80;;;13.66;44.04
30856;BME280;17570;0.000;0.000;2022-12-31T08:40:25;98241.81;;;13.69;43.99
30856;BME280;17570;0.000;0.000;2022-12-31T08:45:54;98244.34;;;13.94;43.67
30856;BME280;17570;0.000;0.000;2022-12-31T08:48:16;98231.78;;;13.99;43.60
30856;BME280;17570;0.000;0.000;2022-12-31T08:50:38;98235.87;;;14.15;43.30
30856;BME280;17570;0.000;0.000;2022-12-31T08:53:05;98235.78;;;14.51;43.91
30856;BME280;17570;0.000;0.000;2022-12-31T08:55:33;98233.21;;;14.96;44.66
30856;BME280;17570;0.000;0.000;2022-12-31T09:00:42;98229.16;;;15.37;43.24
30856;BME280;17570;0.000;0.000;2022-12-31T09:03:14;98234.66;;;15.34;43.02
30856;BME280;17570;0.000;0.000;2022-12-31T09:11:17;98215.22;;;15.48;42.47
30856;BME280;17570;0.000;0.000;2022-12-31T09:19:07;98206.39;;;15.71;41.84
30856;BME280;17570;0.000;0.000;2022-12-31T09:21:35;98206.00;;;15.87;41.54
30856;BME280;17570;0.000;0.000;2022-12-31T09:24:03;98208.20;;;16.03;41.03
30856;BME280;17570;0.000;0.000;2022-12-31T09:26:38;98203.75;;;16.15;40.81
30856;BME280;17570;0.000;0.000;2022-12-31T09:34:24;98198.90;;;15.78;40.01
30856;BME280;17570;0.000;0.000;2022-12-31T09:36:56;98191.28;;;16.07;41.45
30856;BME280;17570;0.000;0.000;2022-12-31T09:44:55;98177.80;;;18.32;38.11
30856;BME280;17570;0.000;0.000;2022-12-31T09:52:53;98176.56;;;19.48;36.49
30856;BME280;17570;0.000;0.000;2022-12-31T10:01:13;98157.15;;;20.38;34.28
30856;BME280;17570;0.000;0.000;2022-12-31T10:03:06;98159.27;;;20.61;34.19
30856;BME280;17570;0.000;0.000;2022-12-31T10:08:20;98152.74;;;21.07;34.62
30856;BME280;17570;0.000;0.000;2022-12-31T10:29:24;98124.47;;;22.73;34.40
30856;BME280;17570;0.000;0.000;2022-12-31T10:34:36;98125.30;;;23.21;33.24
30856;BME280;17570;0.000;0.000;2022-12-31T10:47:26;98111.70;;;24.38;30.41
30856;BME280;17570;0.000;0.000;2022-12-31T10:52:45;98098.23;;;24.99;29.54
30856;BME280;17570;0.000;0.000;2022-12-31T11:00:28;98074.92;;;25.74;29.98
30856;BME280;17570;0.000;0.000;2022-12-31T11:11:06;98071.42;;;26.85;29.44
30856;BME280;17570;0.000;0.000;2022-12-31T11:13:34;98070.49;;;27.06;28.66
30856;BME280;17570;0.000;0.000;2022-12-31T11:49:40;98080.96;;;25.82;32.08
30856;BME280;17570;0.000;0.000;2022-12-31T12:20:09;98070.09;;;26.33;23.07
30856;BME280;17570;0.000;0.000;2022-12-31T12:22:29;98066.23;;;27.18;22.72
30856;BME280;17570;0.000;0.000;2022-12-31T12:25:03;98064.92;;;28.15;21.25
30856;BME280;17570;0.000;0.000;2022-12-31T12:27:30;98065.30;;;28.52;20.93
30856;BME280;17570;0.000;0.000;2022-12-31T12:30:07;98061.62;;;28.46;20.76
30856;BME280;17570;0.000;0.000;2022-12-31T12:32:27;98058.76;;;28.35;20.75
30856;BME280;17570;0.000;0.000;2022-12-31T12:34:54;98064.12;;;28.21;20.89
30856;BME280;17570;0.000;0.000;2022-12-31T12:37:29;98055.50;;;28.00;21.23
30856;BME280;17570;0.000;0.000;2022-12-31T12:40:05;98059.19;;;27.79;21.50
30856;BME280;17570;0.000;0.000;2022-12-31T12:42:45;98063.43;;;27.46;21.91
30856;BME280;17570;0.000;0.000;2022-12-31T12:45:25;98067.27;;;27.17;22.46
30856;BME280;17570;0.000;0.000;2022-12-31T12:48:08;98073.92;;;26.93;22.71
30856;BME280;17570;0.000;0.000;2022-12-31T12:50:42;98076.51;;;26.74;22.97
30856;BME280;17570;0.000;0.000;2022-12-31T12:56:21;98076.14;;;26.49;23.30
30856;BME280;17570;0.000;0.000;2022-12-31T12:59:13;98081.09;;;26.24;23.40
30856;BME280;17570;0.000;0.000;2022-12-31T13:04:17;98085.27;;;25.83;25.45
30856;BME280;17570;0.000;0.000;2022-12-31T13:09:46;98088.62;;;25.70;24.58
30856;BME280;17570;0.000;0.000;2022-12-31T13:12:43;98096.83;;;25.54;24.51
30856;BME280;17570;0.000;0.000;2022-12-31T13:20:54;98111.08;;;25.10;25.21
30856;BME280;17570;0.000;0.000;2022-12-31T13:23:37;98117.12;;;25.04;25.03
30856;BME280;17570;0.000;0.000;2022-12-31T13:26:14;98115.39;;;24.82;25.26
30856;BME280;17570;0.000;0.000;2022-12-31T13:28:42;98115.48;;;24.74;25.51
30856;BME280;17570;0.000;0.000;2022-12-31T13:31:23;98122.43;;;24.75;25.61
30856;BME280;17570;0.000;0.000;2022-12-31T13:33:47;98124.73;;;24.78;25.68
30856;BME280;17570;0.000;0.000;2022-12-31T13:36:16;98133.44;;;24.72;26.06
30856;BME280;17570;0.000;0.000;2022-12-31T13:38:58;98134.81;;;24.67;25.80
30856;BME280;17570;0.000;0.000;2022-12-31T13:46:36;98135.05;;;24.43;26.10
30856;BME280;17570;0.000;0.000;2022-12-31T13:49:09;98149.33;;;24.42;26.45
30856;BME280;17570;0.000;0.000;2022-12-31T13:54:06;98140.58;;;24.33;26.72
30856;BME280;17570;0.000;0.000;2022-12-31T13:56:37;98155.40;;;24.28;26.82
30856;BME280;17570;0.000;0.000;2022-12-31T13:59:11;98156.85;;;24.15;27.24
30856;BME280;17570;0.000;0.000;2022-12-31T14:01:39;98159.91;;;24.04;27.88
30856;BME280;17570;0.000;0.000;2022-12-31T14:04:10;98163.63;;;23.95;28.01
30856;BME280;17570;0.000;0.000;2022-12-31T14:09:21;98168.77;;;23.74;28.15
30856;BME280;17570;0.000;0.000;2022-12-31T14:11:56;98171.81;;;23.54;28.74
30856;BME280;17570;0.000;0.000;2022-12-31T14:14:29;98170.39;;;23.43;29.81
30856;BME280;17570;0.000;0.000;2022-12-31T14:17:02;98176.09;;;23.32;28.89
30856;BME280;17570;0.000;0.000;2022-12-31T14:19:33;98170.05;;;23.07;29.75
30856;BME280;17570;0.000;0.000;2022-12-31T14:24:37;98167.13;;;22.86;29.86
30856;BME280;17570;0.000;0.000;2022-12-31T14:27:06;98172.11;;;22.81;30.41
30856;BME280;17570;0.000;0.000;2022-12-31T14:37:38;98179.78;;;22.10;31.11
30856;BME280;17570;0.000;0.000;2022-12-31T14:40:11;98169.69;;;22.06;31.08
30856;BME280;17570;0.000;0.000;2022-12-31T14:45:29;98174.13;;;21.89;30.96
30856;BME280;17570;0.000;0.000;2022-12-31T14:47:56;98176.26;;;21.69;31.55
30856;BME280;17570;0.000;0.000;2022-12-31T14:50:25;98180.19;;;21.57;31.66
30856;BME280;17570;0.000;0.000;2022-12-31T14:55:36;98180.40;;;21.29;31.53
30856;BME280;17570;0.000;0.000;2022-12-31T14:58:01;98176.89;;;21.21;31.72
30856;BME280;17570;0.000;0.000;2022-12-31T15:00:33;98177.36;;;21.08;32.06
30856;BME280;17570;0.000;0.000;2022-12-31T15:05:51;98183.20;;;20.94;32.29
30856;BME280;17570;0.000;0.000;2022-12-31T15:21:28;98174.19;;;20.26;33.05
30856;BME280;17570;0.000;0.000;2022-12-31T15:23:54;98187.91;;;20.12;33.37
30856;BME280;17570;0.000;0.000;2022-12-31T15:26:23;98187.75;;;20.13;33.09
30856;BME280;17570;0.000;0.000;2022-12-31T15:31:29;98192.36;;;20.11;32.96
30856;BME280;17570;0.000;0.000;2022-12-31T15:33:59;98201.63;;;19.98;33.02
30856;BME280;17570;0.000;0.000;2022-12-31T15:36:28;98203.57;;;19.96;33.21
30856;BME280;17570;0.000;0.000;2022-12-31T15:39:20;98206.69;;;19.91;33.31
30856;BME280;17570;0.000;0.000;2022-12-31T15:41:37;98214.19;;;19.86;33.41
30856;BME280;17570;0.000;0.000;2022-12-31T15:44:12;98226.92;;;19.73;33.45
30856;BME280;17570;0.000;0.000;2022-12-31T15:46:38;98225.24;;;19.72;33.61
30856;BME280;17570;0.000;0.000;2022-12-31T15:54:20;98232.25;;;19.53;33.62
30856;BME280;17570;0.000;0.000;2022-12-31T15:56:47;98245.73;;;19.50;33.74
30856;BME280;17570;0.000;0.000;2022-12-31T15:59:16;98247.00;;;19.46;33.50
30856;BME280;17570;0.000;0.000;2022-12-31T16:01:44;98250.22;;;19.40;33.48
30856;BME280;17570;0.000;0.000;2022-12-31T16:04:17;98246.06;;;19.37;33.59
30856;BME280;17570;0.000;0.000;2022-12-31T16:06:44;98248.07;;;19.26;33.56
30856;BME280;17570;0.000;0.000;2022-12-31T16:09:21;98251.84;;;19.14;33.49
30856;BME280;17570;0.000;0.000;2022-12-31T16:11:44;98252.43;;;19.07;33.42
30856;BME280;17570;0.000;0.000;2022-12-31T16:14:16;98252.73;;;18.95;33.64
30856;BME280;17570;0.000;0.000;2022-12-31T16:16:51;98249.83;;;18.88;33.58
30856;BME280;17570;0.000;0.000;2022-12-31T16:19:26;98251.39;;;18.81;33.71
30856;BME280;17570;0.000;0.000;2022-12-31T16:21:54;98257.08;;;18.76;33.86
30856;BME280;17570;0.000;0.000;2022-12-31T16:24:30;98260.53;;;18.77;33.83
30856;BME280;17570;0.000;0.000;2022-12-31T16:27:04;98260.12;;;18.72;33.87
30856;BME280;17570;0.000;0.000;2022-12-31T16:29:27;98255.70;;;18.53;34.00
30856;BME280;17570;0.000;0.000;2022-12-31T16:31:56;98263.73;;;18.51;33.87
30856;BME280;17570;0.000;0.000;2022-12-31T16:34:25;98262.77;;;18.43;33.77
30856;BME280;17570;0.000;0.000;2022-12-31T16:39:26;98263.72;;;18.32;33.78
30856;BME280;17570;0.000;0.000;2022-12-31T16:42:27;98257.94;;;18.19;33.94
30856;BME280;17570;0.000;0.000;2022-12-31T16:44:29;98266.91;;;18.16;33.96
30856;BME280;17570;0.000;0.000;2022-12-31T16:46:58;98260.94;;;18.04;34.05
30856;BME280;17570;0.000;0.000;2022-12-31T16:49:26;98274.38;;;18.01;34.14
30856;BME280;17570;0.000;0.000;2022-12-31T16:51:57;98272.00;;;17.98;34.20
30856;BME280;17570;0.000;0.000;2022-12-31T16:54:28;98264.68;;;17.92;34.04
30856;BME280;17570;0.000;0.000;2022-12-31T16:56:53;98275.73;;;17.86;34.21
30856;BME280;17570;0.000;0.000;2022-12-31T16:59:26;98282.48;;;17.79;34.17
30856;BME280;17570;0.000;0.000;2022-12-31T17:01:50;98279.44;;;17.74;34.18
30856;BME280;17570;0.000;0.000;2022-12-31T17:04:22;98277.17;;;17.69;34.54
30856;BME280;17570;0.000;0.000;2022-12-31T17:06:49;98286.43;;;17.64;34.48
30856;BME280;17570;0.000;0.000;2022-12-31T17:09:17;98287.66;;;17.59;34.43
30856;BME280;17570;0.000;0.000;2022-12-31T17:14:20;98292.59;;;17.53;34.58
30856;BME280;17570;0.000;0.000;2022-12-31T17:19:43;98296.15;;;17.42;34.68
30856;BME280;17570;0.000;0.000;2022-12-31T17:22:21;98309.48;;;17.29;34.79
30856;BME280;17570;0.000;0.000;2022-12-31T17:24:46;98312.06;;;17.20;35.16
30856;BME280;17570;0.000;0.000;2022-12-31T17:27:14;98317.31;;;17.20;34.93
30856;BME280;17570;0.000;0.000;2022-12-31T17:29:41;98310.41;;;17.19;34.85
30856;BME280;17570;0.000;0.000;2022-12-31T17:32:55;98317.89;;;17.23;34.87
30856;BME280;17570;0.000;0.000;2022-12-31T17:34:46;98326.41;;;17.16;34.92
30856;BME280;17570;0.000;0.000;2022-12-31T17:37:15;98321.82;;;17.08;34.88
30856;BME280;17570;0.000;0.000;2022-12-31T17:39:46;98325.22;;;16.99;34.98
30856;BME280;17570;0.000;0.000;2022-12-31T17:42:30;98324.64;;;16.95;34.98
30856;BME280;17570;0.000;0.000;2022-12-31T17:44:54;98327.64;;;16.91;34.94
30856;BME280;17570;0.000;0.000;2022-12-31T17:47:23;98327.13;;;16.76;35.18
30856;BME280;17570;0.000;0.000;2022-12-31T17:49:51;98331.41;;;16.77;35.01
30856;BME280;17570;0.000;0.000;2022-12-31T17:52:19;98337.03;;;16.72;34.97